Nabb, Indiana
Current Conditions -  °F | °C
As of 9:53 PM on Saturday 22 Nov 2014 (Local Time) from KLOU Reporting Station
Clear Clear  
Wind Chill: 50°   Ceiling: Unl
Heat Index: 50°   Visibility: 10mi
Dew Point: 33°   Wind: 3mph
Humidity: 52%   Direction: 150°SSE
Pressure: 30.08"   Gusts: NA
Location:  38.61°N, 85.63°W
Report Text: KLOU 230253Z 15003KT 10SM CLR 10/01 A3008 RMK AO2 SLP185 T01000006 56010
Loading
Personal Weather Stations






























Interactive Weather Map New forecast layout! Learn more

10-Day Weather Forecast

Advertisements
Track Severe Weather on mobile